createdAt,value
2023-03-13T08:48:43.926Z,17.52
2023-03-13T08:51:15.826Z,16.40
2023-03-13T08:53:45.863Z,16.20
2023-03-13T08:56:20.266Z,18.10
2023-03-13T08:58:59.569Z,16.42
2023-03-13T09:01:32.398Z,18.15
2023-03-13T09:04:04.261Z,18.30
2023-03-13T09:06:38.090Z,12.32
2023-03-13T09:09:08.995Z,12.52
2023-03-13T09:11:40.316Z,20.65
2023-03-13T09:14:10.012Z,15.90
2023-03-13T09:16:39.193Z,16.55
2023-03-13T09:19:08.335Z,15.07
2023-03-13T09:21:37.430Z,11.40
2023-03-13T09:24:06.616Z,18.67
2023-03-13T09:26:35.552Z,16.02
2023-03-13T09:29:04.465Z,18.08
2023-03-13T09:31:34.903Z,16.58
2023-03-13T09:34:04.418Z,14.50
2023-03-13T09:36:33.213Z,22.95
2023-03-13T09:39:02.206Z,20.88
2023-03-13T09:41:59.855Z,18.60
2023-03-13T09:44:37.606Z,15.80
2023-03-13T09:47:22.848Z,15.10
2023-03-13T09:50:12.290Z,15.55
2023-03-13T09:52:42.640Z,13.77
2023-03-13T09:55:18.389Z,14.18
2023-03-13T09:58:03.607Z,12.55
2023-03-13T10:00:42.132Z,15.45
2023-03-13T10:03:40.329Z,15.82
2023-03-13T10:06:21.081Z,15.30
2023-03-13T10:08:51.259Z,12.43
2023-03-13T10:11:44.603Z,12.18
2023-03-13T10:14:40.606Z,11.55
2023-03-13T10:17:29.821Z,12.50
2023-03-13T10:20:23.009Z,15.38
2023-03-13T10:22:59.472Z,16.10
2023-03-13T10:25:42.267Z,16.92
2023-03-13T10:28:17.703Z,16.52
2023-03-13T10:30:53.520Z,15.52
2023-03-13T10:33:28.949Z,14.85
2023-03-13T10:36:02.450Z,9.02
2023-03-13T10:38:35.859Z,8.27
2023-03-13T10:41:34.815Z,8.50
2023-03-13T10:44:09.569Z,9.18
2023-03-13T10:46:43.436Z,6.88
2023-03-13T10:49:20.962Z,8.27
2023-03-13T10:52:00.541Z,10.45
2023-03-13T10:54:31.098Z,12.85
2023-03-13T10:57:23.045Z,14.27
2023-03-13T10:59:54.265Z,13.80
2023-03-13T11:02:37.006Z,12.40
2023-03-13T11:05:27.868Z,11.32
2023-03-13T11:07:57.789Z,11.80
2023-03-13T11:10:33.315Z,9.70
2023-03-13T11:13:02.770Z,11.73
2023-03-13T11:15:40.786Z,9.10
2023-03-13T11:18:15.012Z,9.55
2023-03-13T11:20:47.035Z,10.05
2023-03-13T11:23:30.765Z,9.55
2023-03-13T11:26:11.967Z,10.32
2023-03-13T11:29:03.519Z,9.55
2023-03-13T11:31:47.597Z,9.07
2023-03-13T11:34:52.757Z,10.90
2023-03-13T11:37:24.112Z,9.13
2023-03-13T11:40:11.302Z,9.30
2023-03-13T11:42:58.912Z,12.23
2023-03-13T11:45:52.209Z,9.23
2023-03-13T11:48:38.738Z,13.13
2023-03-13T11:51:20.721Z,13.02
2023-03-13T11:54:25.814Z,12.63
2023-03-13T11:56:59.699Z,12.75
2023-03-13T11:59:49.210Z,12.57
2023-03-13T12:02:56.400Z,11.32
2023-03-13T12:05:27.423Z,14.80
2023-03-13T12:08:07.312Z,16.50
2023-03-13T12:10:45.277Z,12.55
2023-03-13T12:13:43.274Z,13.38
2023-03-13T12:16:22.350Z,14.18
2023-03-13T12:18:53.556Z,17.13
2023-03-13T12:21:54.146Z,15.77
2023-03-13T12:24:28.883Z,19.33
2023-03-13T12:27:03.548Z,19.38
2023-03-13T12:29:59.842Z,23.08
2023-03-13T12:32:40.317Z,28.92
2023-03-13T12:35:41.474Z,26.35
2023-03-13T12:38:26.070Z,22.35
2023-03-13T12:41:10.294Z,22.33
2023-03-13T12:43:49.667Z,15.55
2023-03-13T12:46:38.160Z,14.13
2023-03-13T12:49:28.574Z,15.63
2023-03-13T12:52:34.388Z,16.90
2023-03-13T12:55:31.754Z,20.13
2023-03-13T12:58:24.746Z,26.05
2023-03-13T13:00:56.562Z,26.27
2023-03-13T13:04:01.581Z,28.27
2023-03-13T13:07:20.166Z,28.85
2023-03-13T13:10:18.284Z,26.08
2023-03-13T13:13:16.524Z,34.67
2023-03-13T13:16:00.516Z,27.45
2023-03-13T13:18:31.562Z,30.30
2023-03-13T13:21:06.418Z,31.55
2023-03-13T13:23:39.880Z,35.92
2023-03-13T13:26:29.770Z,35.83
2023-03-13T13:29:01.401Z,36.20
2023-03-13T13:31:49.120Z,36.92
2023-03-13T13:34:32.709Z,40.58
2023-03-13T13:37:24.650Z,40.97
2023-03-13T13:39:55.322Z,42.67
2023-03-13T13:42:33.069Z,36.72
2023-03-13T13:45:06.778Z,36.38
2023-03-13T13:47:35.780Z,37.35
2023-03-13T13:50:04.597Z,34.63
2023-03-13T13:52:43.893Z,36.75
2023-03-13T13:55:27.848Z,36.38
2023-03-13T13:58:12.280Z,34.63
2023-03-13T14:01:01.264Z,32.20
2023-03-13T14:03:33.092Z,35.40
2023-03-13T14:06:13.064Z,37.47
2023-03-13T14:08:45.963Z,39.40
2023-03-13T14:11:33.896Z,43.10
2023-03-13T14:14:16.231Z,44.50
2023-03-13T14:16:53.213Z,43.00
2023-03-13T14:19:39.213Z,44.33
2023-03-13T14:22:12.712Z,49.60
2023-03-13T14:24:42.024Z,52.80
2023-03-13T14:27:22.443Z,49.90
2023-03-13T14:30:12.597Z,52.42
2023-03-13T14:32:42.115Z,46.20
2023-03-13T14:35:13.221Z,43.15
2023-03-13T14:37:51.885Z,41.95
2023-03-13T14:40:24.708Z,44.00
2023-03-13T14:43:02.210Z,43.65
2023-03-13T14:45:40.163Z,43.55
2023-03-13T14:48:30.230Z,43.53
2023-03-13T14:51:15.280Z,45.50
2023-03-13T14:54:02.758Z,49.72
2023-03-13T14:56:43.152Z,46.45
2023-03-13T14:59:19.000Z,52.38
2023-03-13T15:01:48.326Z,47.88
2023-03-13T15:04:17.079Z,46.30
2023-03-13T15:06:46.117Z,48.55
2023-03-13T15:09:23.785Z,47.92
2023-03-13T15:11:59.467Z,48.90
2023-03-13T15:14:41.262Z,49.65
2023-03-13T15:17:23.047Z,49.17
2023-03-13T15:19:58.306Z,51.23
2023-03-13T15:22:32.926Z,46.42
2023-03-13T15:25:06.917Z,46.97
2023-03-13T15:27:36.898Z,45.53
2023-03-13T15:30:06.132Z,44.10
2023-03-13T15:32:40.179Z,47.13
2023-03-13T15:35:31.475Z,46.75
2023-03-13T15:38:02.518Z,46.97
2023-03-13T15:40:34.610Z,46.03
2023-03-13T15:43:03.554Z,50.08
2023-03-13T15:45:32.454Z,49.42
2023-03-13T15:48:02.024Z,53.35
2023-03-13T15:50:31.908Z,49.35
2023-03-13T15:53:01.842Z,51.30
2023-03-13T15:55:31.295Z,50.60
2023-03-13T15:58:00.234Z,52.58
2023-03-13T16:00:29.094Z,50.95
2023-03-13T16:02:58.160Z,59.35
2023-03-13T16:05:26.864Z,54.55
2023-03-13T16:07:56.040Z,53.47
2023-03-13T16:10:28.890Z,53.40
2023-03-13T16:12:58.020Z,53.47
2023-03-13T16:15:26.816Z,53.75
2023-03-13T16:17:57.879Z,56.40
2023-03-13T16:20:27.475Z,60.58
2023-03-13T16:22:57.090Z,60.10
2023-03-13T16:25:26.825Z,60.90
2023-03-13T16:27:57.320Z,64.82
2023-03-13T16:30:31.600Z,67.32
2023-03-13T16:33:01.492Z,67.57
2023-03-13T16:35:30.869Z,74.03
2023-03-13T16:37:59.982Z,72.47
2023-03-13T16:40:33.274Z,79.95
2023-03-13T16:43:02.660Z,77.30
2023-03-13T16:45:31.574Z,75.20
2023-03-13T16:48:00.736Z,73.70
2023-03-13T16:50:38.006Z,53.78
2023-03-13T16:53:06.957Z,45.03
2023-03-13T16:55:38.193Z,36.15
2023-03-13T16:58:07.202Z,29.27
2023-03-13T17:00:37.661Z,26.70
2023-03-13T17:03:06.756Z,20.95
2023-03-13T17:05:35.582Z,20.17
2023-03-13T17:08:04.941Z,18.25
2023-03-13T17:10:34.779Z,18.73
2023-03-13T17:13:04.398Z,17.42
2023-03-13T17:15:33.485Z,18.13
2023-03-13T17:18:02.228Z,16.48
2023-03-13T17:20:31.707Z,17.27
2023-03-13T17:23:01.962Z,14.82
2023-03-13T17:25:30.943Z,14.45
2023-03-13T17:27:59.720Z,15.65
2023-03-13T17:30:31.236Z,13.95
2023-03-13T17:33:01.783Z,14.20
2023-03-13T17:35:30.817Z,12.63
2023-03-13T17:37:59.610Z,12.55
2023-03-13T17:40:30.896Z,15.18
2023-03-13T17:43:00.003Z,14.30
2023-03-13T17:45:28.739Z,15.10
2023-03-13T17:47:57.888Z,12.32
2023-03-13T17:50:28.470Z,11.23
2023-03-13T17:52:57.867Z,11.57
2023-03-13T17:55:26.518Z,12.32
2023-03-13T17:57:55.511Z,12.10
2023-03-13T18:00:33.626Z,12.05
2023-03-13T18:03:02.887Z,12.32
2023-03-13T18:05:31.738Z,14.05
2023-03-13T18:08:01.126Z,19.08
2023-03-13T18:10:31.618Z,19.63
2023-03-13T18:13:00.509Z,23.90
2023-03-13T18:15:29.200Z,19.10
2023-03-13T18:17:58.166Z,23.60
2023-03-13T18:20:29.543Z,19.23
2023-03-13T18:23:01.119Z,27.50
2023-03-13T18:25:31.005Z,22.00
2023-03-13T18:28:00.229Z,21.95
2023-03-13T18:30:29.901Z,22.63
2023-03-13T18:32:58.677Z,28.90
2023-03-13T18:35:27.602Z,47.65
2023-03-13T18:37:56.367Z,69.72
2023-03-13T18:40:28.407Z,37.63
2023-03-13T18:42:57.447Z,34.15
2023-03-13T18:45:27.730Z,33.17
2023-03-13T18:47:56.843Z,34.30
2023-03-13T18:50:28.704Z,37.92
2023-03-13T18:53:00.356Z,39.03
2023-03-13T18:55:31.637Z,42.58
2023-03-13T18:58:00.736Z,46.00
2023-03-13T19:00:31.631Z,52.70
2023-03-13T19:03:00.583Z,54.75
2023-03-13T19:05:29.702Z,50.20
2023-03-13T19:07:58.722Z,57.22
2023-03-13T19:10:32.503Z,50.95
2023-03-13T19:13:01.549Z,52.22
2023-03-13T19:15:35.393Z,52.05
2023-03-13T19:18:04.520Z,54.60
2023-03-13T19:20:33.445Z,52.42
2023-03-13T19:23:02.486Z,51.20
2023-03-13T19:25:31.305Z,49.20
2023-03-13T19:28:00.266Z,48.10
2023-03-13T19:30:29.041Z,48.20
2023-03-13T19:32:58.137Z,48.60
2023-03-13T19:35:27.639Z,48.67
2023-03-13T19:37:56.630Z,40.75
2023-03-13T19:40:29.575Z,32.85
2023-03-13T19:42:58.815Z,29.58
2023-03-13T19:45:28.574Z,24.85
2023-03-13T19:47:57.556Z,16.08
2023-03-13T19:50:30.750Z,15.13
2023-03-13T19:52:59.867Z,11.75
2023-03-13T19:55:28.715Z,10.27
2023-03-13T19:57:57.552Z,8.00
2023-03-13T20:00:28.910Z,8.82
2023-03-13T20:02:58.495Z,7.10
2023-03-13T20:05:30.278Z,6.45
2023-03-13T20:07:59.405Z,10.52
2023-03-13T20:10:28.118Z,26.48
2023-03-13T20:12:57.057Z,12.93
2023-03-13T20:15:25.923Z,43.10
2023-03-13T20:17:57.371Z,11.32
2023-03-13T20:20:26.347Z,6.22
2023-03-13T20:22:55.115Z,7.15
2023-03-13T20:25:25.327Z,7.55
2023-03-13T20:27:54.406Z,17.35
2023-03-13T20:30:24.206Z,10.43
2023-03-13T20:32:59.724Z,7.95
2023-03-13T20:35:29.785Z,7.55
2023-03-13T20:38:00.590Z,8.60
2023-03-13T20:40:29.762Z,6.60
2023-03-13T20:42:59.644Z,8.38
2023-03-13T20:45:32.909Z,8.00
2023-03-13T20:48:01.809Z,7.95
2023-03-13T20:50:30.633Z,6.97
2023-03-13T20:52:59.608Z,5.90
2023-03-13T20:55:28.285Z,6.65
2023-03-13T20:57:57.304Z,7.50
2023-03-13T21:00:26.214Z,5.88
2023-03-13T21:02:55.277Z,7.10
2023-03-13T21:05:24.022Z,17.73
2023-03-13T21:07:53.165Z,9.63
2023-03-13T21:10:22.250Z,11.48
2023-03-13T21:12:51.453Z,6.38
2023-03-13T21:15:20.544Z,6.07
2023-03-13T21:17:49.583Z,7.07
2023-03-13T21:20:18.313Z,9.50
2023-03-13T21:22:47.312Z,14.70
2023-03-13T21:25:16.425Z,7.88
2023-03-13T21:27:45.437Z,9.43
2023-03-13T21:30:19.075Z,8.38
2023-03-13T21:32:49.005Z,9.35
2023-03-13T21:35:18.356Z,7.82
2023-03-13T21:37:49.257Z,18.38
2023-03-13T21:40:18.269Z,15.90
2023-03-13T21:42:46.941Z,10.90
2023-03-13T21:45:15.832Z,20.77
2023-03-13T21:47:44.524Z,13.90
2023-03-13T21:50:14.345Z,10.10
2023-03-13T21:52:43.309Z,9.65
2023-03-13T21:55:14.187Z,7.13
2023-03-13T21:57:43.464Z,8.25
2023-03-13T22:00:15.025Z,12.35
2023-03-13T22:02:44.312Z,14.93
2023-03-13T22:05:13.521Z,17.80
2023-03-13T22:07:42.523Z,16.25
2023-03-13T22:10:11.902Z,14.45
2023-03-13T22:12:40.932Z,9.90
2023-03-13T22:15:10.508Z,8.32
2023-03-13T22:17:39.719Z,9.13
2023-03-13T22:20:09.471Z,10.60
2023-03-13T22:22:38.509Z,9.73
2023-03-13T22:25:07.641Z,7.00
2023-03-13T22:27:36.591Z,8.35
2023-03-13T22:30:05.768Z,6.82
2023-03-13T22:32:34.816Z,8.68
2023-03-13T22:35:03.670Z,9.60
2023-03-13T22:37:32.787Z,8.38
2023-03-13T22:40:03.115Z,7.15
2023-03-13T22:42:34.654Z,6.72
2023-03-13T22:45:03.953Z,7.33
2023-03-13T22:47:33.417Z,8.05
2023-03-13T22:50:02.369Z,8.38
2023-03-13T22:52:31.962Z,7.40
2023-03-13T22:55:00.992Z,8.13
2023-03-13T22:57:30.177Z,8.15
2023-03-13T23:00:00.244Z,10.40
2023-03-13T23:02:30.192Z,10.50
2023-03-13T23:05:02.069Z,19.65
2023-03-13T23:07:31.563Z,44.13
2023-03-13T23:10:00.834Z,45.38
2023-03-13T23:12:31.746Z,48.55
2023-03-13T23:15:01.074Z,74.75
2023-03-13T23:17:34.101Z,74.13
2023-03-13T23:20:03.445Z,76.50
2023-03-13T23:22:33.822Z,91.22
2023-03-13T23:25:02.885Z,94.00
2023-03-13T23:27:32.653Z,115.40
2023-03-13T23:30:02.834Z,126.57
2023-03-13T23:32:37.518Z,111.53
2023-03-13T23:35:07.746Z,95.13
2023-03-13T23:37:36.875Z,88.03
2023-03-13T23:40:11.846Z,92.70
2023-03-13T23:42:41.030Z,80.15
2023-03-13T23:45:10.082Z,50.13
2023-03-13T23:47:39.309Z,34.35
2023-03-13T23:50:08.285Z,27.98
2023-03-13T23:52:37.991Z,23.90
2023-03-13T23:55:07.478Z,22.10
2023-03-13T23:57:38.503Z,20.98
